createdAt,value
2023-05-03T00:00:10.091Z,736.6667
2023-05-03T00:01:13.971Z,752.8333
2023-05-03T00:02:17.912Z,747.2500
2023-05-03T00:03:21.824Z,742.0833
2023-05-03T00:04:25.694Z,737.5833
2023-05-03T00:05:29.691Z,727.9167
2023-05-03T00:06:33.632Z,732.5833
2023-05-03T00:07:37.503Z,739.1667
2023-05-03T00:08:41.417Z,742.4167
2023-05-03T00:09:45.506Z,742.4167
2023-05-03T00:10:49.424Z,738.5833
2023-05-03T00:11:53.325Z,728.9167
2023-05-03T00:12:58.317Z,726.5000
2023-05-03T00:14:02.200Z,733.9167
2023-05-03T00:15:06.077Z,729.7500
2023-05-03T00:16:09.968Z,732.4167
2023-05-03T00:17:13.958Z,737.5000
2023-05-03T00:18:17.941Z,731.8333
2023-05-03T00:19:31.448Z,718.9167
2023-05-03T00:20:26.529Z,728.7273
2023-05-03T00:21:30.413Z,728.5000
2023-05-03T00:22:34.306Z,732.2500
2023-05-03T00:23:38.194Z,734.5000
2023-05-03T00:24:42.083Z,726.4167
2023-05-03T00:25:42.359Z,722.1818
2023-05-03T00:26:46.265Z,714.5000
2023-05-03T00:27:50.152Z,728.1667
2023-05-03T00:28:54.050Z,733.0833
2023-05-03T00:29:58.021Z,725.5000
2023-05-03T00:31:01.928Z,721.8333
2023-05-03T00:32:05.797Z,716.9167
2023-05-03T00:33:09.732Z,722.0000
2023-05-03T00:34:13.648Z,724.5833
2023-05-03T00:35:17.771Z,728.1667
2023-05-03T00:36:21.667Z,736.3333
2023-05-03T00:37:25.551Z,717.1667
2023-05-03T00:38:29.427Z,718.5833
2023-05-03T00:39:33.307Z,723.9167
2023-05-03T00:40:37.210Z,730.3333
2023-05-03T00:41:41.102Z,728.5000
2023-05-03T00:42:45.000Z,729.2500
2023-05-03T00:43:48.883Z,729.0833
2023-05-03T00:44:54.081Z,708.0833
2023-05-03T00:45:59.349Z,709.4545
2023-05-03T00:46:58.824Z,714.0909
2023-05-03T00:48:02.742Z,719.7500
2023-05-03T00:49:06.651Z,721.3333
2023-05-03T00:50:10.583Z,726.9167
2023-05-03T00:51:14.490Z,726.5000
2023-05-03T00:52:18.361Z,726.5833
2023-05-03T00:53:22.253Z,731.8333
2023-05-03T00:54:26.180Z,732.7500
2023-05-03T00:55:30.043Z,732.5833
2023-05-03T00:56:47.844Z,717.2500
2023-05-03T00:57:34.093Z,716.1000
2023-05-03T00:58:37.982Z,721.9167
2023-05-03T00:59:41.881Z,715.3333
2023-05-03T01:00:45.776Z,718.6667
2023-05-03T01:01:49.691Z,733.5833
2023-05-03T01:02:53.567Z,728.0833
2023-05-03T01:03:57.514Z,708.5833
2023-05-03T01:05:01.517Z,706.0833
2023-05-03T01:06:05.469Z,712.6667
2023-05-03T01:07:09.326Z,718.9167
2023-05-03T01:08:13.233Z,721.7500
2023-05-03T01:09:17.122Z,714.2500
2023-05-03T01:10:21.000Z,708.8333
2023-05-03T01:11:24.881Z,714.8333
2023-05-03T01:12:28.798Z,720.5000
2023-05-03T01:13:32.672Z,717.5000
2023-05-03T01:14:36.580Z,711.4167
2023-05-03T01:15:40.498Z,701.3333
2023-05-03T01:16:44.606Z,699.5000
2023-05-03T01:17:48.563Z,708.0833
2023-05-03T01:18:52.457Z,706.1667
2023-05-03T01:19:56.495Z,706.9167
2023-05-03T01:21:00.391Z,713.1667
2023-05-03T01:22:04.255Z,718.5000
2023-05-03T01:23:08.154Z,702.0000
2023-05-03T01:24:12.038Z,713.1667
2023-05-03T01:25:15.966Z,708.8333
2023-05-03T01:26:19.850Z,707.5833
2023-05-03T01:27:24.061Z,712.5833
2023-05-03T01:28:27.967Z,713.3333
2023-05-03T01:29:31.906Z,699.8333
2023-05-03T01:30:35.794Z,698.0000
2023-05-03T01:31:39.771Z,702.1667
2023-05-03T01:32:43.658Z,704.2500
2023-05-03T01:33:47.517Z,712.5000
2023-05-03T01:34:51.389Z,710.7500
2023-05-03T01:35:55.300Z,705.9167
2023-05-03T01:36:59.229Z,697.8333
2023-05-03T01:38:03.128Z,711.6667
2023-05-03T01:39:07.000Z,708.0833
2023-05-03T01:40:11.018Z,708.4167
2023-05-03T01:41:14.944Z,712.1667
2023-05-03T01:42:18.851Z,694.0833
2023-05-03T01:43:22.772Z,682.0833
2023-05-03T01:44:26.676Z,696.1667
2023-05-03T01:45:30.640Z,709.4167
2023-05-03T01:46:34.557Z,710.4167
2023-05-03T01:47:38.324Z,712.6364
2023-05-03T01:48:42.223Z,710.5000
2023-05-03T01:49:46.127Z,702.2500
2023-05-03T01:50:50.013Z,701.3333
2023-05-03T01:51:53.926Z,700.6667
2023-05-03T01:52:57.949Z,701.0000
2023-05-03T01:54:01.883Z,714.4167
2023-05-03T01:55:05.769Z,704.2500
2023-05-03T01:56:09.676Z,700.0833
2023-05-03T01:57:13.604Z,691.8333
2023-05-03T01:58:17.498Z,690.5000
2023-05-03T01:59:21.388Z,704.8333
2023-05-03T02:00:25.311Z,712.5833
2023-05-03T02:01:29.216Z,709.8333
2023-05-03T02:02:33.150Z,700.2500
2023-05-03T02:03:36.998Z,703.8333
2023-05-03T02:04:41.232Z,701.1667
2023-05-03T02:05:45.185Z,708.0000
2023-05-03T02:06:49.139Z,703.7500
2023-05-03T02:07:53.294Z,703.8333
2023-05-03T02:08:57.173Z,698.6667
2023-05-03T02:10:01.285Z,701.5000
2023-05-03T02:11:02.348Z,707.8000
2023-05-03T02:12:06.280Z,701.7500
2023-05-03T02:13:10.148Z,699.3333
2023-05-03T02:14:14.034Z,705.7500
2023-05-03T02:15:17.945Z,699.5833
2023-05-03T02:16:21.861Z,702.5833
2023-05-03T02:17:25.740Z,700.3333
2023-05-03T02:18:29.628Z,704.5833
2023-05-03T02:19:33.502Z,706.2500
2023-05-03T02:20:37.397Z,701.6667
2023-05-03T02:21:41.307Z,691.9167
2023-05-03T02:22:45.230Z,684.0000
2023-05-03T02:23:49.166Z,676.0833
2023-05-03T02:24:53.030Z,695.2500
2023-05-03T02:25:56.920Z,705.0000
2023-05-03T02:27:00.828Z,699.3333
2023-05-03T02:28:04.756Z,681.5833
2023-05-03T02:29:08.645Z,689.2500
2023-05-03T02:30:12.816Z,685.9167
2023-05-03T02:31:16.775Z,691.4167
2023-05-03T02:32:20.936Z,690.5833
2023-05-03T02:33:24.852Z,700.8333
2023-05-03T02:34:28.751Z,693.0000
2023-05-03T02:35:32.662Z,673.8333
2023-05-03T02:36:36.607Z,673.5000
2023-05-03T02:37:40.513Z,672.0000
2023-05-03T02:38:44.413Z,680.5833
2023-05-03T02:39:48.316Z,685.7500
2023-05-03T02:40:52.216Z,684.1667
2023-05-03T02:41:56.089Z,681.5000
2023-05-03T02:43:00.038Z,693.5833
2023-05-03T02:44:03.941Z,693.5000
2023-05-03T02:45:07.849Z,690.7500
2023-05-03T02:46:11.773Z,687.8333
2023-05-03T02:47:15.908Z,673.0000
2023-05-03T02:48:19.801Z,672.4167
2023-05-03T02:49:23.743Z,671.4167
2023-05-03T02:50:27.646Z,670.5000
2023-05-03T02:51:31.559Z,674.3333
2023-05-03T02:52:35.478Z,679.4167
2023-05-03T02:53:39.366Z,675.5833
2023-05-03T02:54:43.504Z,676.6667
2023-05-03T02:55:47.425Z,681.5833
2023-05-03T02:56:51.341Z,679.5000
2023-05-03T02:57:55.261Z,671.6667
2023-05-03T02:58:59.174Z,672.1667
2023-05-03T03:00:03.277Z,683.7500
2023-05-03T03:01:07.473Z,677.0833
2023-05-03T03:02:11.366Z,663.1667
2023-05-03T03:03:15.336Z,663.7500
2023-05-03T03:04:19.273Z,669.5000
2023-05-03T03:05:23.212Z,675.6667
2023-05-03T03:06:27.123Z,677.0833
2023-05-03T03:07:31.019Z,656.5000
2023-05-03T03:08:34.945Z,667.5000
2023-05-03T03:09:38.880Z,662.4167
2023-05-03T03:10:42.789Z,665.5000
2023-05-03T03:11:46.693Z,670.0833
2023-05-03T03:12:50.893Z,682.5833
2023-05-03T03:13:54.752Z,681.0833
2023-05-03T03:14:58.698Z,669.4167
2023-05-03T03:16:02.614Z,671.5833
2023-05-03T03:17:06.483Z,677.5833
2023-05-03T03:18:10.418Z,684.1667
2023-05-03T03:19:14.316Z,690.2500
2023-05-03T03:20:18.240Z,663.5833
2023-05-03T03:21:22.175Z,661.9167
2023-05-03T03:22:26.086Z,672.4167
2023-05-03T03:23:30.004Z,676.2500
2023-05-03T03:24:33.928Z,679.4167
2023-05-03T03:25:38.017Z,686.0000
2023-05-03T03:26:41.935Z,674.4167
2023-05-03T03:27:45.829Z,663.0000
2023-05-03T03:28:49.743Z,653.3333
2023-05-03T03:29:53.655Z,663.5000
2023-05-03T03:30:57.554Z,673.2500
2023-05-03T03:32:01.490Z,683.3333
2023-05-03T03:33:05.427Z,675.0833
2023-05-03T03:34:09.316Z,652.5833
2023-05-03T03:35:13.205Z,668.4167
2023-05-03T03:36:17.091Z,684.0000
2023-05-03T03:37:20.993Z,673.5000
2023-05-03T03:38:24.892Z,677.5000
2023-05-03T03:39:28.779Z,669.8333
2023-05-03T03:40:32.669Z,664.0000
2023-05-03T03:41:36.570Z,666.4167
2023-05-03T03:42:40.669Z,662.3333
2023-05-03T03:43:44.583Z,675.5000
2023-05-03T03:44:48.471Z,683.2500
2023-05-03T03:45:52.390Z,679.1667
2023-05-03T03:46:56.314Z,674.3333
2023-05-03T03:48:00.231Z,666.4167
2023-05-03T03:49:04.120Z,675.5000
2023-05-03T03:50:08.051Z,673.8333
2023-05-03T03:51:11.983Z,670.6667
2023-05-03T03:52:23.513Z,664.0000
2023-05-03T03:53:27.421Z,660.2500
2023-05-03T03:54:31.309Z,663.2500
2023-05-03T03:55:35.226Z,657.5000
2023-05-03T03:56:39.188Z,668.5833
2023-05-03T03:57:43.112Z,673.4167
2023-05-03T03:58:46.994Z,667.8333
2023-05-03T03:59:50.889Z,675.3333
2023-05-03T04:00:54.779Z,668.3333
2023-05-03T04:01:58.710Z,673.5000
2023-05-03T04:03:03.603Z,673.4167
2023-05-03T04:04:03.865Z,652.5455
2023-05-03T04:05:07.768Z,665.6667
2023-05-03T04:06:11.659Z,650.2500
2023-05-03T04:07:15.544Z,652.4167
2023-05-03T04:08:19.434Z,655.9167
2023-05-03T04:09:30.190Z,671.8333
2023-05-03T04:10:23.478Z,674.2000
2023-05-03T04:11:27.365Z,671.8333
2023-05-03T04:12:27.585Z,664.3636
2023-05-03T04:13:31.482Z,653.4167
2023-05-03T04:14:35.376Z,648.4167
2023-05-03T04:15:39.280Z,640.7500
2023-05-03T04:16:43.235Z,654.5833
2023-05-03T04:17:47.125Z,652.3333
2023-05-03T04:18:51.039Z,648.8333
2023-05-03T04:19:54.894Z,652.8333
2023-05-03T04:20:58.782Z,654.9167
2023-05-03T04:22:02.715Z,658.3333
2023-05-03T04:23:06.592Z,665.8333
2023-05-03T04:24:10.503Z,663.5833
2023-05-03T04:25:14.421Z,655.0000
2023-05-03T04:26:30.746Z,648.7500
2023-05-03T04:27:22.841Z,653.2727
2023-05-03T04:28:26.741Z,660.1667
2023-05-03T04:29:30.673Z,665.4167
2023-05-03T04:30:34.582Z,664.7500
2023-05-03T04:31:38.467Z,664.5833
2023-05-03T04:32:42.467Z,654.4167
2023-05-03T04:33:46.322Z,651.8333
2023-05-03T04:34:51.348Z,665.6667
2023-05-03T04:35:51.082Z,671.5455
2023-05-03T04:36:54.987Z,668.6667
2023-05-03T04:37:58.916Z,661.6667
2023-05-03T04:38:59.766Z,653.1000
2023-05-03T04:40:03.966Z,649.3333
2023-05-03T04:41:08.091Z,648.0000
2023-05-03T04:42:12.026Z,654.4167
2023-05-03T04:43:15.933Z,659.5833
2023-05-03T04:44:19.860Z,667.7500
2023-05-03T04:45:23.892Z,651.6667
2023-05-03T04:46:35.354Z,636.0833
2023-05-03T04:47:28.697Z,658.1000
2023-05-03T04:48:32.570Z,653.1667
2023-05-03T04:49:36.479Z,647.7500
2023-05-03T04:50:40.377Z,659.3333
2023-05-03T04:51:44.274Z,656.0000
2023-05-03T04:52:48.183Z,646.8333
2023-05-03T04:53:52.061Z,638.2500
2023-05-03T04:54:56.208Z,655.5833
2023-05-03T04:56:00.103Z,669.2500
2023-05-03T04:57:03.976Z,656.0833
2023-05-03T04:58:07.886Z,636.3333
2023-05-03T04:59:11.757Z,630.9167
2023-05-03T05:00:15.894Z,642.3333
2023-05-03T05:01:19.819Z,650.4167
2023-05-03T05:02:23.740Z,641.9167
2023-05-03T05:03:27.736Z,645.1667
2023-05-03T05:04:31.685Z,658.0000
2023-05-03T05:05:35.591Z,646.5000
2023-05-03T05:06:39.538Z,646.5000
2023-05-03T05:07:43.442Z,643.0833
2023-05-03T05:08:47.338Z,646.0000
2023-05-03T05:09:51.249Z,653.7500
2023-05-03T05:10:55.160Z,656.5000
2023-05-03T05:11:59.033Z,660.4167
2023-05-03T05:13:02.930Z,655.3333
2023-05-03T05:14:06.813Z,645.7500
2023-05-03T05:15:10.739Z,640.7500
2023-05-03T05:16:14.662Z,650.7500
2023-05-03T05:17:18.797Z,660.8333
2023-05-03T05:18:22.685Z,656.6667
2023-05-03T05:19:26.570Z,650.7500
2023-05-03T05:20:30.471Z,654.6667
2023-05-03T05:21:34.390Z,650.5000
2023-05-03T05:22:38.581Z,649.4167
2023-05-03T05:23:42.466Z,663.7500
2023-05-03T05:24:46.631Z,638.4167
2023-05-03T05:25:50.512Z,633.9167
2023-05-03T05:26:54.388Z,637.5833
2023-05-03T05:27:58.304Z,641.5833
2023-05-03T05:29:02.184Z,650.6667
2023-05-03T05:30:06.154Z,647.7500
2023-05-03T05:31:10.132Z,640.9167
2023-05-03T05:32:13.975Z,632.2500
2023-05-03T05:33:19.096Z,632.6667
2023-05-03T05:34:17.916Z,638.9091
2023-05-03T05:35:21.829Z,649.2500
2023-05-03T05:36:25.839Z,650.9167
2023-05-03T05:37:30.024Z,652.5000
2023-05-03T05:38:33.894Z,646.8333
2023-05-03T05:39:37.801Z,639.6667
2023-05-03T05:40:41.891Z,651.0000
2023-05-03T05:41:45.784Z,659.6667
2023-05-03T05:42:49.709Z,653.9167
2023-05-03T05:43:53.603Z,627.0833
2023-05-03T05:44:57.527Z,631.9167
2023-05-03T05:46:01.439Z,642.5833
2023-05-03T05:47:08.232Z,640.1667
2023-05-03T05:48:07.685Z,642.2727
2023-05-03T05:49:11.612Z,650.9167
2023-05-03T05:50:18.836Z,657.5833
2023-05-03T05:51:17.973Z,640.1818
2023-05-03T05:52:21.891Z,647.0833
2023-05-03T05:53:25.791Z,654.5000
2023-05-03T05:54:30.564Z,653.2500
2023-05-03T05:55:34.560Z,658.0000
2023-05-03T05:56:38.465Z,650.6667
2023-05-03T05:57:42.710Z,631.0833
2023-05-03T05:58:46.614Z,636.3333
2023-05-03T05:59:51.733Z,632.8333
2023-05-03T06:00:51.197Z,635.1818
2023-05-03T06:01:55.104Z,650.7500
2023-05-03T06:02:59.241Z,654.5000
2023-05-03T06:04:03.108Z,638.8333
2023-05-03T06:05:08.024Z,640.5000
2023-05-03T06:06:12.012Z,640.8333
2023-05-03T06:07:15.914Z,640.2500
2023-05-03T06:08:19.843Z,640.4167
2023-05-03T06:09:24.959Z,638.0000
2023-05-03T06:10:24.066Z,643.5455
2023-05-03T06:11:27.994Z,636.1667
2023-05-03T06:12:32.127Z,636.0833
2023-05-03T06:13:36.013Z,640.3333
2023-05-03T06:14:46.212Z,642.7500
2023-05-03T06:15:44.409Z,638.3636
2023-05-03T06:16:48.365Z,634.8333
2023-05-03T06:17:52.293Z,613.4167
2023-05-03T06:18:56.189Z,629.8333
2023-05-03T06:20:00.166Z,637.7500
2023-05-03T06:21:04.137Z,641.7500
2023-05-03T06:22:07.996Z,644.8333
2023-05-03T06:23:12.154Z,640.5833
2023-05-03T06:24:16.067Z,633.2500
2023-05-03T06:25:20.128Z,634.0000
2023-05-03T06:26:24.038Z,629.5000
2023-05-03T06:27:27.980Z,626.0000
2023-05-03T06:28:31.892Z,624.6667
2023-05-03T06:29:35.794Z,631.9167
2023-05-03T06:30:39.740Z,625.7500
2023-05-03T06:31:43.655Z,630.8333
2023-05-03T06:32:47.581Z,630.7500
2023-05-03T06:33:51.495Z,637.7500
2023-05-03T06:34:55.722Z,635.4167
2023-05-03T06:35:59.626Z,643.5000
2023-05-03T06:37:03.516Z,635.7500
2023-05-03T06:38:07.448Z,631.2500
2023-05-03T06:39:11.359Z,638.2500
2023-05-03T06:40:15.275Z,641.0000
2023-05-03T06:41:19.190Z,639.3333
2023-05-03T06:42:24.612Z,625.5000
2023-05-03T06:43:25.742Z,623.5000
2023-05-03T06:44:29.626Z,630.5000
2023-05-03T06:45:33.534Z,632.3333
2023-05-03T06:46:37.467Z,634.9167
2023-05-03T06:47:41.649Z,637.3333
2023-05-03T06:48:45.539Z,644.2500
2023-05-03T06:49:49.429Z,634.5833
2023-05-03T06:50:50.549Z,620.6000
2023-05-03T06:51:54.463Z,625.8333
2023-05-03T06:52:58.378Z,629.6667
2023-05-03T06:54:02.310Z,644.5833
2023-05-03T06:55:06.547Z,638.7500
2023-05-03T06:56:10.433Z,637.5833
2023-05-03T06:57:14.357Z,630.9167
2023-05-03T06:58:18.847Z,628.5000
2023-05-03T06:59:22.738Z,630.0000
2023-05-03T07:00:26.636Z,636.3333
2023-05-03T07:01:30.564Z,638.4167
2023-05-03T07:02:34.503Z,624.6667
2023-05-03T07:03:41.456Z,629.1667
2023-05-03T07:04:40.433Z,629.6364
2023-05-03T07:05:44.338Z,634.3333
2023-05-03T07:06:56.042Z,635.7500
2023-05-03T07:07:52.765Z,636.0000
2023-05-03T07:08:56.693Z,621.8333
2023-05-03T07:10:00.783Z,621.0833
2023-05-03T07:11:04.776Z,623.3333
2023-05-03T07:12:08.673Z,628.5000
2023-05-03T07:13:12.686Z,632.5833
2023-05-03T07:14:16.535Z,628.1667
2023-05-03T07:15:20.449Z,626.2500
2023-05-03T07:16:24.362Z,625.6667
2023-05-03T07:17:28.248Z,624.7500
2023-05-03T07:18:32.118Z,625.4167
2023-05-03T07:19:36.054Z,627.8333
2023-05-03T07:20:39.947Z,620.9167
2023-05-03T07:21:43.846Z,629.1667
2023-05-03T07:22:47.741Z,629.8333
2023-05-03T07:23:51.618Z,629.0833
2023-05-03T07:24:55.513Z,630.2500
2023-05-03T07:25:59.421Z,630.3333
2023-05-03T07:27:03.320Z,634.2500
2023-05-03T07:28:07.222Z,617.0833
2023-05-03T07:29:11.119Z,610.9167
2023-05-03T07:30:15.027Z,609.5000
2023-05-03T07:31:18.943Z,622.5833
2023-05-03T07:32:22.940Z,626.1667
2023-05-03T07:33:27.019Z,646.4167
2023-05-03T07:34:30.921Z,630.0833
2023-05-03T07:35:34.828Z,622.0000
2023-05-03T07:36:38.729Z,617.1667
2023-05-03T07:37:42.927Z,619.5833
2023-05-03T07:38:46.850Z,622.3333
2023-05-03T07:39:50.773Z,628.0833
2023-05-03T07:40:54.756Z,630.8333
2023-05-03T07:41:58.633Z,631.9167
2023-05-03T07:43:02.534Z,632.0833
2023-05-03T07:44:06.433Z,616.9167
2023-05-03T07:45:10.325Z,618.8333
2023-05-03T07:46:14.276Z,627.7500
2023-05-03T07:47:18.118Z,626.6667
2023-05-03T07:48:22.019Z,610.5000
2023-05-03T07:49:25.899Z,611.7500
2023-05-03T07:50:29.789Z,627.0833
2023-05-03T07:51:33.721Z,619.3333
2023-05-03T07:52:45.363Z,634.1667
2023-05-03T07:53:38.669Z,632.4000
2023-05-03T07:54:42.588Z,624.3333
2023-05-03T07:55:46.479Z,623.8333
2023-05-03T07:56:50.365Z,619.6667
2023-05-03T07:57:54.451Z,621.8333
2023-05-03T07:59:08.357Z,623.7500
2023-05-03T08:00:03.224Z,626.1818
2023-05-03T08:01:07.270Z,613.4167
2023-05-03T08:02:11.247Z,623.2500
2023-05-03T08:03:15.522Z,628.4167
2023-05-03T08:04:19.969Z,620.7500
2023-05-03T08:05:24.019Z,616.1667
2023-05-03T08:06:27.992Z,618.9167
2023-05-03T08:07:31.856Z,600.8333
2023-05-03T08:08:35.755Z,606.0833
2023-05-03T08:09:39.684Z,620.1667
2023-05-03T08:10:43.570Z,617.7500
2023-05-03T08:11:47.456Z,617.0000
2023-05-03T08:12:51.410Z,609.7500
2023-05-03T08:13:55.290Z,611.8333
2023-05-03T08:14:59.204Z,620.4167
2023-05-03T08:16:03.122Z,614.8333
2023-05-03T08:17:07.044Z,617.1667
2023-05-03T08:18:11.165Z,625.8333
2023-05-03T08:19:15.070Z,630.0833
2023-05-03T08:20:19.008Z,618.0000
2023-05-03T08:21:22.907Z,604.3333
2023-05-03T08:22:26.888Z,601.5000
2023-05-03T08:23:30.871Z,610.4167
2023-05-03T08:24:34.783Z,604.7500
2023-05-03T08:25:38.703Z,600.6667
2023-05-03T08:26:42.710Z,599.0833
2023-05-03T08:27:46.595Z,607.5000
2023-05-03T08:28:50.479Z,604.0833
2023-05-03T08:29:54.400Z,608.7500
2023-05-03T08:30:58.356Z,613.7500
2023-05-03T08:32:02.245Z,614.2500
2023-05-03T08:33:06.250Z,612.3333
2023-05-03T08:34:10.166Z,605.2500
2023-05-03T08:35:14.082Z,601.5833
2023-05-03T08:36:17.948Z,593.9167
2023-05-03T08:37:21.824Z,599.0000
2023-05-03T08:38:25.717Z,606.8333
2023-05-03T08:39:29.621Z,607.0000
2023-05-03T08:40:33.514Z,600.2500
2023-05-03T08:41:37.394Z,601.5000
2023-05-03T08:42:41.284Z,606.1667
2023-05-03T08:43:45.208Z,605.4167
2023-05-03T08:44:49.130Z,610.9167
2023-05-03T08:45:53.038Z,610.2500
2023-05-03T08:46:56.973Z,609.6667
2023-05-03T08:48:00.950Z,607.8333
2023-05-03T08:49:04.857Z,606.5833
2023-05-03T08:50:08.789Z,608.3333
2023-05-03T08:51:12.747Z,575.8333
2023-05-03T08:52:16.689Z,543.9167
2023-05-03T08:53:20.549Z,528.1667
2023-05-03T08:54:24.447Z,531.1667
2023-05-03T08:55:28.385Z,528.0833
2023-05-03T08:56:32.294Z,520.7500
2023-05-03T08:57:36.204Z,521.9167
2023-05-03T08:58:40.102Z,519.5000
2023-05-03T08:59:44.017Z,516.5833
2023-05-03T09:00:48.046Z,514.7500
2023-05-03T09:01:53.521Z,516.7500
2023-05-03T09:02:53.524Z,516.7273
2023-05-03T09:03:57.506Z,515.2500
2023-05-03T09:05:01.691Z,519.0833
2023-05-03T09:06:05.727Z,518.8333
2023-05-03T09:07:09.673Z,512.4167
2023-05-03T09:08:13.589Z,511.3333
2023-05-03T09:09:17.478Z,511.3333
2023-05-03T09:10:21.682Z,509.2500
2023-05-03T09:11:25.574Z,504.9167
2023-05-03T09:12:29.485Z,509.0833
2023-05-03T09:13:33.476Z,495.2500
2023-05-03T09:14:37.350Z,502.1667
2023-05-03T09:15:41.232Z,503.8333
2023-05-03T09:16:45.189Z,503.1667
2023-05-03T09:17:49.212Z,504.1667
2023-05-03T09:18:53.073Z,505.1667
2023-05-03T09:19:57.040Z,501.3333
2023-05-03T09:21:00.911Z,513.8333
2023-05-03T09:22:04.801Z,510.9167
2023-05-03T09:23:08.694Z,506.9167
2023-05-03T09:24:12.585Z,608.8333
2023-05-03T09:25:16.485Z,790.0833
2023-05-03T09:26:20.495Z,829.8333
2023-05-03T09:27:24.349Z,848.8333
2023-05-03T09:28:28.284Z,871.8333
2023-05-03T09:29:32.196Z,875.5000
2023-05-03T09:30:36.066Z,888.3333
2023-05-03T09:31:40.033Z,890.6667
2023-05-03T09:32:44.089Z,880.0000
2023-05-03T09:33:47.961Z,872.3333
2023-05-03T09:34:51.860Z,880.4167
2023-05-03T09:35:55.749Z,890.6667
2023-05-03T09:36:59.635Z,895.4167
2023-05-03T09:38:03.540Z,891.6667
2023-05-03T09:39:07.447Z,849.9167
2023-05-03T09:40:11.356Z,645.0000
2023-05-03T09:41:15.233Z,555.6667
2023-05-03T09:42:19.150Z,538.6667
2023-05-03T09:43:23.057Z,527.3333
2023-05-03T09:44:27.144Z,515.3333
2023-05-03T09:45:31.073Z,513.4167
2023-05-03T09:46:35.078Z,511.5000
2023-05-03T09:47:38.995Z,517.0833
2023-05-03T09:48:42.893Z,513.9167
2023-05-03T09:49:44.075Z,514.0000
2023-05-03T09:50:47.994Z,512.0833
2023-05-03T09:51:52.202Z,503.3333
2023-05-03T09:52:56.106Z,503.2500
2023-05-03T09:54:03.241Z,499.1667
2023-05-03T09:55:02.041Z,828.4545
2023-05-03T09:56:06.160Z,1125.5000
2023-05-03T09:57:26.094Z,1195.5834
2023-05-03T09:58:15.072Z,1212.0000
2023-05-03T09:59:18.983Z,1225.9166
2023-05-03T10:00:22.862Z,1229.2500
2023-05-03T10:01:26.768Z,1251.1666
2023-05-03T10:02:30.690Z,1261.2500
2023-05-03T10:03:34.635Z,1266.4166
2023-05-03T10:04:38.610Z,1259.3334
2023-05-03T10:05:42.121Z,1257.8182
2023-05-03T10:06:46.170Z,1268.4166
2023-05-03T10:07:50.131Z,1269.1666
2023-05-03T10:08:54.061Z,1248.5834
2023-05-03T10:09:57.985Z,1174.4166
2023-05-03T10:11:01.971Z,773.6667
2023-05-03T10:12:06.013Z,589.3333
2023-05-03T10:13:12.003Z,532.0000
2023-05-03T10:14:11.003Z,516.9091
2023-05-03T10:15:14.890Z,511.1667
2023-05-03T10:16:18.880Z,512.1667
2023-05-03T10:17:29.093Z,508.1667
2023-05-03T10:18:27.397Z,515.8182
2023-05-03T10:19:31.506Z,512.2500
2023-05-03T10:20:35.412Z,506.9167
2023-05-03T10:21:39.307Z,500.2500
2023-05-03T10:22:43.168Z,500.2500
2023-05-03T10:23:47.074Z,508.2500
2023-05-03T10:24:50.970Z,515.5833
2023-05-03T10:25:55.136Z,538.0833
2023-05-03T10:26:59.029Z,1059.7500
2023-05-03T10:28:02.915Z,1454.9166
2023-05-03T10:29:06.824Z,1551.3334
2023-05-03T10:30:10.740Z,1598.1666
2023-05-03T10:31:14.674Z,1608.2500
2023-05-03T10:32:18.550Z,1616.4166
2023-05-03T10:33:22.433Z,1634.1666
2023-05-03T10:34:26.702Z,1633.4166
2023-05-03T10:35:30.594Z,1631.7500
2023-05-03T10:36:42.228Z,1627.8334
2023-05-03T10:37:39.288Z,1645.0000
2023-05-03T10:38:43.220Z,1641.6666
2023-05-03T10:39:47.113Z,1648.0000
2023-05-03T10:40:51.055Z,1438.6666
2023-05-03T10:41:54.981Z,825.7500
2023-05-03T10:42:58.902Z,597.5000
2023-05-03T10:44:02.797Z,540.0000
2023-05-03T10:45:06.880Z,514.0833
2023-05-03T10:46:10.846Z,502.4167
2023-05-03T10:47:14.775Z,500.4167
2023-05-03T10:48:18.642Z,495.9167
2023-05-03T10:49:22.553Z,492.1667
2023-05-03T10:50:26.464Z,490.6667
2023-05-03T10:51:30.368Z,493.7500
2023-05-03T10:52:34.286Z,488.5000
2023-05-03T10:53:38.242Z,487.1667
2023-05-03T10:54:42.465Z,485.1667
2023-05-03T10:55:46.390Z,520.0000
2023-05-03T10:56:50.292Z,1308.2500
2023-05-03T10:57:54.225Z,1741.2500
2023-05-03T10:58:58.148Z,1846.5000
2023-05-03T11:00:02.389Z,1895.9166
2023-05-03T11:01:06.500Z,1910.1666
2023-05-03T11:02:10.427Z,1922.0834
2023-05-03T11:03:14.361Z,1942.2500
2023-05-03T11:04:18.268Z,1934.8334
2023-05-03T11:05:22.169Z,1942.0834
2023-05-03T11:06:26.315Z,1940.6666
2023-05-03T11:07:30.259Z,1943.5834
2023-05-03T11:08:34.174Z,1948.7500
2023-05-03T11:09:38.102Z,1945.9166
2023-05-03T11:10:42.036Z,1944.7500
2023-05-03T11:11:45.950Z,1390.2500
2023-05-03T11:12:49.876Z,747.4167
2023-05-03T11:13:53.817Z,564.4167
2023-05-03T11:14:57.710Z,520.5833
2023-05-03T11:16:01.640Z,500.2500
2023-05-03T11:17:05.536Z,491.0833
2023-05-03T11:18:09.528Z,495.9167
2023-05-03T11:19:13.514Z,498.9167
2023-05-03T11:20:17.396Z,497.4167
2023-05-03T11:21:18.228Z,492.5000
2023-05-03T11:22:18.515Z,502.5714
2023-05-03T11:23:20.331Z,500.4000
2023-05-03T11:24:29.019Z,500.3000
2023-05-03T11:25:31.666Z,508.5555
2023-05-03T11:26:37.469Z,516.7500
2023-05-03T11:27:38.305Z,603.7000
2023-05-03T11:28:39.112Z,1656.3000
2023-05-03T11:29:43.034Z,2114.5000
2023-05-03T11:30:46.985Z,2225.3333
2023-05-03T11:31:50.973Z,2273.5000
2023-05-03T11:32:54.892Z,2297.5000
2023-05-03T11:33:58.836Z,2314.5833
2023-05-03T11:35:03.079Z,2349.9167
2023-05-03T11:36:07.155Z,2353.0833
2023-05-03T11:37:11.050Z,2327.6667
2023-05-03T11:38:14.927Z,2327.8333
2023-05-03T11:39:20.692Z,2339.4167
2023-05-03T11:40:19.610Z,2328.6365
2023-05-03T11:41:23.516Z,2329.4167
2023-05-03T11:42:27.419Z,2317.8333
2023-05-03T11:43:31.367Z,2306.2500
2023-05-03T11:44:35.359Z,2295.6667
2023-05-03T11:45:39.317Z,2303.1667
2023-05-03T11:46:43.572Z,2312.1667
2023-05-03T11:47:47.521Z,2318.0000
2023-05-03T11:48:51.429Z,2336.0000
2023-05-03T11:49:55.565Z,2299.0833
2023-05-03T11:50:59.486Z,2276.9167
2023-05-03T11:52:03.482Z,2273.2500
2023-05-03T11:53:07.341Z,1493.1666
2023-05-03T11:54:24.187Z,778.6667
2023-05-03T11:55:15.705Z,581.0000
2023-05-03T11:56:19.614Z,525.9167
2023-05-03T11:57:23.544Z,512.3333
2023-05-03T11:58:27.479Z,503.9167
2023-05-03T11:59:31.381Z,494.1667
2023-05-03T12:00:35.264Z,495.5833
2023-05-03T12:01:39.155Z,500.3333
2023-05-03T12:02:43.217Z,498.6667
2023-05-03T12:03:47.340Z,493.8333
2023-05-03T12:04:52.274Z,489.1667
2023-05-03T12:05:56.685Z,482.2500
2023-05-03T12:07:02.092Z,486.0833
2023-05-03T12:08:01.852Z,489.1818
2023-05-03T12:09:06.432Z,487.3333
2023-05-03T12:10:16.483Z,483.7500
2023-05-03T12:11:17.486Z,489.0909
2023-05-03T12:12:19.856Z,496.9091
2023-05-03T12:13:20.405Z,496.4546
2023-05-03T12:14:24.660Z,496.5000
2023-05-03T12:15:29.978Z,496.0833
2023-05-03T12:16:28.752Z,492.7273
2023-05-03T12:17:32.894Z,495.0000
2023-05-03T12:18:39.262Z,489.0000
2023-05-03T12:19:39.253Z,485.7273
2023-05-03T12:21:29.309Z,485.0000
2023-05-03T12:22:01.002Z,487.4546
2023-05-03T12:22:56.351Z,491.8182
2023-05-03T12:23:57.220Z,489.8182
2023-05-03T12:25:03.994Z,490.9167
2023-05-03T12:26:05.331Z,490.5454
2023-05-03T12:27:04.326Z,489.0000